Strona główna
METAR-TAF:

METAR-TAF

Lotnisko :

Port lotniczy Marka

Amman, Jordania

Szerokość geograficzna: 31-59N, Długość geograficzna: 035-59E, wysokość: 767 m

Aktualna obserwacja pogody

Raport powstał 23 minut temu, godzina 05:00 UTC
Wiatr 3 kt z kierunków zmiennych
Temperatura 6°C
Wilgotność 81%
Ciśnienie 1018 hPa
Widzialność: 4500 m
zmętnienie

METAR: OJAM 170500Z VRB03KT 4500 HZ NSC 06/03 Q1018 NOSIG

czas: 07:23 (05:23 UTC)

Prognoza

Raport powstał 6 godziny i 23 minut temu, godzina 23:00 UTC
Prognoza ważna od 17 godzina 00 UTC do 18 godzina 06 UTC
Wiatr 8 kt od zachód
Widzialność: 5000 m
Rozproszone chmury na wysokości 3000 ft
zmętnienie
Przejściowo
od 17 godzina 02 UTC do 17 godzina 06 UTC
Wiatr 3 kt z kierunków zmiennych
Widzialność: 3000 m
Mało chmury na wysokości 3000 ft
zamglenie

TAF: OJAM 162300Z 1700/1806 26008KT 5000 HZ SCT030 TEMPO 1702/1706 VRB03KT 3000 BR FEW030

Obserwacja i prognoza pogody dla ponad 4000 lotnisk (raport METAR i TAF).

Dostępne stacje oznaczono żółtymi i czerwonymi punktami na mapie.

Najedź kursorem aby zobaczyć nazwę stacji.

Kliknij aby zobaczyć obserwacje i prognozy pogody.

Aby zmienić mapę: kliknij na zielony przycisk z czarnym krzyżykiem, aby powiększyć; na zielony przycisk z myślnikiem, aby pomniejszyć; na zielone strzałki, aby przejść do map sąsiednich.


METAR-TAF: